| time (UTC) | temp C | wind direction | speed KPH | gust KPH | rain 1hr cm | rain 24hr cm | rain mn cm | humidity % | barometer mb |
| 20260906071600 | 22 | 0 | 0.0 | 0.0 | 0.00 | 1.09 | 0.00 | 87 | 1012.3 |
| 20260906064601 | 22 | 0 | 0.0 | 0.0 | 0.00 | 1.09 | 0.00 | 86 | 1012.8 |
| 20260906063100 | 22 | 0 | 0.0 | 0.0 | 0.00 | 1.09 | 0.00 | 86 | 1013.0 |
| 20260906061604 | 22 | 0 | 0.0 | 0.0 | 0.00 | 1.09 | 0.00 | 88 | 1013.3 |
| 20260906060104 | 21 | 0 | 0.0 | 1.6 | 0.00 | 1.09 | 0.00 | 93 | 1013.5 |
| 20260906054605 | 21 | 0 | 0.0 | 1.6 | 0.00 | 1.09 | 0.00 | 93 | 1013.5 |
| 20260906053110 | 21 | 0 | 0.0 | 1.6 | 0.00 | 1.09 | 0.00 | 93 | 1013.5 |
| 20260906051604 | 22 | 0 | 0.0 | 0.0 | 0.00 | 1.09 | 0.00 | 93 | 1013.7 |
| 20260906044600 | 22 | 0 | 0.0 | 0.0 | 0.00 | 1.09 | 0.00 | 91 | 1013.8 |
| 20260906043103 | 22 | 0 | 0.0 | 0.0 | 0.00 | 1.09 | 0.00 | 90 | 1013.8 |
| 20260906041603 | 22 | 0 | 0.0 | 0.0 | 0.00 | 1.09 | 0.00 | 91 | 1014.0 |
| 20260906040110 | 23 | 0 | 0.0 | 0.0 | 0.00 | 1.09 | 0.00 | 89 | 1014.1 |
| 20260906034601 | 22 | 0 | 0.0 | 1.6 | 0.00 | 1.09 | 1.09 | 90 | 1014.0 |
| 20260906033112 | 22 | 315 | 0.0 | 3.2 | 0.00 | 1.09 | 1.09 | 91 | 1014.1 |
| 20260906031558 | 23 | 0 | 0.0 | 0.0 | 0.00 | 1.09 | 1.09 | 91 | 1014.1 |
| 20260906024603 | 23 | 0 | 0.0 | 1.6 | 0.00 | 1.09 | 1.09 | 92 | 1014.1 |
| 20260906023102 | 23 | 309 | 0.0 | 4.8 | 0.00 | 1.09 | 1.09 | 93 | 1013.8 |
| 20260906021605 | 23 | 0 | 0.0 | 0.0 | 0.00 | 1.09 | 1.09 | 92 | 1013.7 |
| 20260906020109 | 23 | 0 | 0.0 | 1.6 | 0.00 | 1.09 | 1.09 | 91 | 1013.7 |
| 20260906014603 | 23 | 0 | 0.0 | 0.0 | 0.00 | 1.09 | 1.09 | 91 | 1013.7 |
| 20260906013110 | 24 | 0 | 0.0 | 1.6 | 0.00 | 1.09 | 1.09 | 89 | 1013.9 |
| 20260906011608 | 24 | 0 | 0.0 | 0.0 | 0.00 | 1.09 | 1.09 | 87 | 1013.5 |
| 20260906010107 | 25 | 0 | 0.0 | 0.0 | 0.00 | 1.09 | 1.09 | 86 | 1013.5 |
| 20260906004610 | 25 | 0 | 0.0 | 0.0 | 0.00 | 1.09 | 1.09 | 86 | 1013.4 |
| 20260906003107 | 25 | 0 | 0.0 | 0.0 | 0.00 | 1.09 | 1.09 | 82 | 1013.2 |
| 20260906001607 | 26 | 0 | 0.0 | 0.0 | 0.00 | 1.09 | 1.09 | 79 | 1012.7 |
| 20260906000109 | 26 | 0 | 0.0 | 0.0 | 0.00 | 1.09 | 1.09 | 79 | 1012.5 |
| 20260905234602 | 27 | 0 | 0.0 | 0.0 | 0.00 | 1.09 | 1.09 | 75 | 1012.5 |
| 20260905233103 | 28 | 0 | 0.0 | 1.6 | 0.00 | 1.09 | 1.09 | 73 | 1012.3 |
| 20260905231602 | 28 | 0 | 0.0 | 1.6 | 0.00 | 1.09 | 1.09 | 71 | 1012.5 |
| 20260905230059 | 28 | 0 | 0.0 | 4.8 | 0.00 | 1.09 | 1.09 | 72 | 1012.3 |
| 20260905224602 | 28 | 286 | 0.0 | 4.8 | 0.00 | 1.09 | 1.09 | 71 | 1012.3 |
| 20260905223104 | 29 | 49 | 0.0 | 6.4 | 0.00 | 1.09 | 1.09 | 70 | 1012.4 |
| 20260905221604 | 29 | 304 | 0.0 | 4.8 | 0.00 | 1.09 | 1.09 | 69 | 1012.4 |
| 20260905220103 | 29 | 292 | 1.6 | 6.4 | 0.00 | 1.09 | 1.09 | 68 | 1012.4 |
| 20260905214603 | 29 | 0 | 0.0 | 3.2 | 0.00 | 1.09 | 1.09 | 67 | 1012.7 |
| 20260905213105 | 29 | 0 | 0.0 | 4.8 | 0.00 | 1.09 | 1.09 | 67 | 1013.0 |
| 20260905211603 | 28 | 0 | 0.0 | 11.3 | 0.00 | 1.09 | 1.09 | 71 | 1013.1 |
| 20260905210120 | 27 | 0 | 0.0 | 4.8 | 0.00 | 1.09 | 1.09 | 79 | 1012.9 |
| 20260905204604 | 27 | 0 | 0.0 | 3.2 | 0.00 | 1.09 | 1.09 | 81 | 1012.7 |
| 20260905203058 | 26 | 0 | 0.0 | 1.6 | 0.00 | 1.09 | 1.09 | 83 | 1012.8 |
| 20260905201602 | 26 | 0 | 0.0 | 4.8 | 0.00 | 1.09 | 1.09 | 84 | 1013.0 |
| 20260905200114 | 26 | 0 | 0.0 | 1.6 | 0.00 | 1.09 | 1.09 | 83 | 1013.4 |
| 20260905194614 | 26 | 0 | 0.0 | 0.0 | 0.00 | 1.09 | 1.09 | 84 | 1013.4 |
| 20260905193100 | 25 | 0 | 0.0 | 0.0 | 0.00 | 1.09 | 1.09 | 83 | 1013.2 |
| 20260905191608 | 25 | 0 | 0.0 | 1.6 | 0.00 | 1.09 | 1.09 | 88 | 1013.3 |
| 20260905190112 | 24 | 0 | 0.0 | 3.2 | 0.00 | 1.09 | 1.09 | 90 | 1012.8 |
| 20260905184621 | 23 | 0 | 0.0 | 3.2 | 0.00 | 1.09 | 1.09 | 92 | 1012.4 |
| 20260905183109 | 23 | 0 | 0.0 | 1.6 | 0.64 | 1.09 | 1.09 | 93 | 1012.9 |
| 20260905181602 | 22 | 0 | 0.0 | 1.6 | 1.09 | 1.09 | 1.09 | 95 | 1013.7 |
| 20260905180059 | 21 | 0 | 0.0 | 4.8 | 1.09 | 1.09 | 1.09 | 94 | 1014.1 |
| 20260905174608 | 22 | 205 | 4.8 | 14.5 | 1.07 | 1.07 | 1.07 | 91 | 1015.1 |
| 20260905173113 | 22 | 242 | 6.4 | 57.9 | 0.43 | 0.43 | 0.43 | 86 | 1015.7 |
| 20260905171619 | 33 | 298 | 8.0 | 16.1 | 0.00 | 0.00 | 0.00 | 58 | 1014.2 |
| 20260905170113 | 33 | 296 | 3.2 | 16.1 | 0.00 | 0.00 | 0.00 | 55 | 1014.5 |
| 20260905164605 | 33 | 294 | 8.0 | 16.1 | 0.00 | 0.00 | 0.00 | 55 | 1014.5 |
| 20260905163117 | 33 | 269 | 3.2 | 11.3 | 0.00 | 0.00 | 0.00 | 57 | 1014.7 |
| 20260905161603 | 33 | 288 | 3.2 | 11.3 | 0.00 | 0.00 | 0.00 | 58 | 1014.8 |
| 20260905160107 | 33 | 290 | 0.0 | 11.3 | 0.00 | 0.00 | 0.00 | 60 | 1015.1 |
| 20260905154617 | 33 | 0 | 0.0 | 6.4 | 0.00 | 0.00 | 0.00 | 60 | 1015.1 |
| 20260905153113 | 32 | 294 | 1.6 | 12.9 | 0.00 | 0.00 | 0.00 | 62 | 1014.9 |
| 20260905151613 | 32 | 298 | 0.0 | 8.0 | 0.00 | 0.00 | 0.00 | 64 | 1014.7 |
| 20260905150118 | 31 | 307 | 1.6 | 6.4 | 0.00 | 0.00 | 0.00 | 68 | 1014.8 |
| 20260905144603 | 31 | 289 | 0.0 | 3.2 | 0.00 | 0.00 | 0.00 | 69 | 1014.9 |
| 20260905143104 | 30 | 0 | 0.0 | 3.2 | 0.00 | 0.00 | 0.00 | 70 | 1014.9 |
| 20260905141604 | 30 | 318 | 1.6 | 4.8 | 0.00 | 0.00 | 0.00 | 72 | 1014.8 |
| 20260905134600 | 28 | 0 | 0.0 | 4.8 | 0.00 | 0.00 | 0.00 | 77 | 1014.8 |
| 20260905133101 | 27 | 0 | 0.0 | 1.6 | 0.00 | 0.00 | 0.00 | 79 | 1015.0 |
| 20260905131607 | 26 | 0 | 0.0 | 1.6 | 0.00 | 0.00 | 0.00 | 81 | 1015.2 |
| 20260905130059 | 25 | 299 | 0.0 | 3.2 | 0.00 | 0.00 | 0.00 | 83 | 1015.2 |
| 20260905124558 | 25 | 297 | 0.0 | 0.0 | 0.00 | 0.00 | 0.00 | 86 | 1015.2 |
| 20260905123104 | 23 | 0 | 0.0 | 1.6 | 0.00 | 0.00 | 0.00 | 88 | 1015.2 |
| 20260905121604 | 23 | 301 | 0.0 | 3.2 | 0.00 | 0.00 | 0.00 | 90 | 1015.1 |
| 20260905120058 | 22 | 0 | 0.0 | 1.6 | 0.00 | 0.00 | 0.00 | 91 | 1014.8 |
| 20260905114602 | 22 | 0 | 0.0 | 0.0 | 0.00 | 0.00 | 0.00 | 92 | 1014.7 |
| 20260905113101 | 22 | 0 | 0.0 | 0.0 | 0.00 | 0.00 | 0.00 | 92 | 1014.7 |
| 20260905111644 | 22 | 0 | 0.0 | 0.0 | 0.00 | 0.00 | 0.00 | 91 | 1014.5 |
| 20260905110101 | 22 | 312 | 0.0 | 0.0 | 0.00 | 0.00 | 0.00 | 91 | 1014.4 |
| 20260905104607 | 22 | 0 | 0.0 | 1.6 | 0.00 | 0.00 | 0.00 | 92 | 1014.2 |
| 20260905103107 | 21 | 0 | 0.0 | 3.2 | 0.00 | 0.00 | 0.00 | 92 | 1014.2 |
| 20260905101606 | 22 | 307 | 0.0 | 1.6 | 0.00 | 0.00 | 0.00 | 92 | 1014.1 |
| 20260905100110 | 22 | 0 | 0.0 | 1.6 | 0.00 | 0.00 | 0.00 | 92 | 1014.1 |
| 20260905094605 | 22 | 0 | 0.0 | 1.6 | 0.00 | 0.00 | 0.00 | 92 | 1014.1 |
| 20260905093106 | 22 | 0 | 0.0 | 0.0 | 0.00 | 0.00 | 0.00 | 92 | 1014.1 |
| 20260905091604 | 22 | 0 | 0.0 | 1.6 | 0.00 | 0.00 | 0.00 | 91 | 1014.0 |
| 20260905084607 | 22 | 0 | 0.0 | 1.6 | 0.00 | 0.00 | 0.00 | 90 | 1014.2 |
| 20260905083102 | 22 | 304 | 0.0 | 0.0 | 0.00 | 0.00 | 0.00 | 90 | 1014.3 |
| 20260905081605 | 22 | 0 | 0.0 | 0.0 | 0.00 | 0.00 | 0.00 | 89 | 1014.4 |
| 20260905080122 | 23 | 0 | 0.0 | 1.6 | 0.00 | 0.00 | 0.00 | 89 | 1014.7 |
| 20260905074602 | 23 | 0 | 0.0 | 0.0 | 0.00 | 0.00 | 0.00 | 87 | 1014.7 |
| 20260905073104 | 23 | 0 | 0.0 | 0.0 | 0.00 | 0.00 | 0.00 | 87 | 1014.7 |